Time;durP1;ratioP1;P1;durP2;ratioP2;P2;SDS_P1;SDS_P2;PMS_P1;PMS_P2;Temp;Humidity;BMP_temperature;BMP_pressure;BME280_temperature;BME280_humidity;BME280_pressure;Samples;Min_cycle;Max_cycle;Signal;HPM_P1;HPM_P2
2023/08/17 00:02:18;;;;;;;5.10;4.70;;;22.50;97.20;;;;;;5074477;28;20460;-59
2023/08/17 00:04:45;;;;;;;5.27;4.87;;;22.50;97.30;;;;;;5074495;28;20448;-59
2023/08/17 00:07:11;;;;;;;4.77;4.30;;;22.50;97.40;;;;;;5074508;28;20448;-59
2023/08/17 00:09:39;;;;;;;5.00;4.57;;;22.50;97.40;;;;;;5074398;28;20445;-59
2023/08/17 00:12:06;;;;;;;5.67;4.90;;;22.50;97.40;;;;;;5074340;28;20465;-59
2023/08/17 00:14:33;;;;;;;6.10;5.00;;;22.50;97.30;;;;;;5074237;28;20954;-59
2023/08/17 00:17:02;;;;;;;6.27;4.63;;;22.40;97.30;;;;;;5073915;28;20443;-59
2023/08/17 00:19:29;;;;;;;6.47;5.97;;;22.40;97.40;;;;;;5074094;28;20820;-59
2023/08/17 00:21:56;;;;;;;6.87;5.53;;;22.40;97.40;;;;;;5074146;28;20469;-59
2023/08/17 00:24:22;;;;;;;7.37;6.07;;;22.40;97.40;;;;;;5073990;28;20981;-59
2023/08/17 00:26:49;;;;;;;6.37;5.77;;;22.30;97.40;;;;;;5073821;28;20973;-59
2023/08/17 00:29:17;;;;;;;5.10;4.70;;;22.30;97.50;;;;;;5073968;28;20489;-59
2023/08/17 00:31:43;;;;;;;7.07;5.27;;;22.30;97.60;;;;;;5073814;28;20484;-59
2023/08/17 00:34:11;;;;;;;6.93;6.23;;;22.30;97.60;;;;;;5074013;28;20448;-59
2023/08/17 00:36:38;;;;;;;5.73;5.30;;;22.30;97.60;;;;;;5073936;28;20444;-59
2023/08/17 00:39:05;;;;;;;7.90;5.23;;;22.30;97.60;;;;;;5073866;28;20444;-59
2023/08/17 00:41:32;;;;;;;7.50;5.97;;;22.30;97.50;;;;;;5073847;28;20464;-59
2023/08/17 00:43:58;;;;;;;5.70;5.20;;;22.30;97.30;;;;;;5073798;28;20445;-59
2023/08/17 00:46:27;;;;;;;6.10;5.43;;;22.30;97.50;;;;;;5073836;28;20809;-59
2023/08/17 00:48:55;;;;;;;5.93;5.53;;;22.30;97.70;;;;;;5073320;28;20476;-59
2023/08/17 00:51:24;;;;;;;6.83;6.13;;;22.20;97.80;;;;;;5073644;28;20496;-59
2023/08/17 00:53:51;;;;;;;8.07;5.70;;;22.20;97.90;;;;;;5073866;28;20444;-59
2023/08/17 00:56:18;;;;;;;6.63;6.00;;;22.20;98.10;;;;;;5074197;28;20472;-60
2023/08/17 00:58:45;;;;;;;6.50;5.97;;;22.20;98.10;;;;;;5073556;28;20452;-59
2023/08/17 01:01:12;;;;;;;7.50;5.83;;;22.20;98.10;;;;;;5073554;28;20837;-59
2023/08/17 01:03:41;;;;;;;6.43;5.83;;;22.20;98.10;;;;;;5073252;28;20449;-59
2023/08/17 01:06:08;;;;;;;9.23;5.93;;;22.20;98.10;;;;;;5073437;28;20494;-59
2023/08/17 01:08:36;;;;;;;7.30;5.77;;;22.20;98.30;;;;;;5073608;28;20476;-59
2023/08/17 01:11:10;;;;;;;5.73;5.20;;;22.10;98.30;;;;;;5073005;28;20993;-59
2023/08/17 01:13:48;;;;;;;6.03;5.50;;;22.10;98.30;;;;;;5073454;28;20428;-59
2023/08/17 01:16:25;;;;;;;6.30;5.80;;;22.10;98.40;;;;;;5073420;28;20435;-59
2023/08/17 01:18:53;;;;;;;6.23;5.37;;;22.10;98.50;;;;;;5073557;28;20425;-59
2023/08/17 01:21:23;;;;;;;5.57;5.07;;;22.10;98.60;;;;;;5073012;28;20472;-59
2023/08/17 01:23:51;;;;;;;5.43;4.93;;;22.10;98.50;;;;;;5073363;28;20447;-59
2023/08/17 01:26:18;;;;;;;6.33;5.63;;;22.10;98.60;;;;;;5073231;28;20468;-59
2023/08/17 01:28:47;;;;;;;6.60;5.70;;;22.10;98.50;;;;;;5074519;28;20480;-59
2023/08/17 01:31:20;;;;;;;5.40;5.00;;;22.10;98.60;;;;;;5079883;28;20500;-59
2023/08/17 01:33:52;;;;;;;6.50;4.80;;;22.10;98.50;;;;;;5079862;28;20436;-59
2023/08/17 01:36:23;;;;;;;5.20;4.80;;;22.10;98.40;;;;;;5079909;28;20424;-59
2023/08/17 01:38:54;;;;;;;5.63;5.13;;;22.10;98.50;;;;;;5079907;28;20439;-59
2023/08/17 01:41:23;;;;;;;5.13;4.80;;;22.00;98.40;;;;;;5079756;28;20571;-59
2023/08/17 01:43:50;;;;;;;5.53;4.77;;;22.00;98.50;;;;;;5079824;28;20444;-59
2023/08/17 01:46:18;;;;;;;7.37;4.60;;;22.00;98.50;;;;;;5079780;28;20452;-59
2023/08/17 01:48:46;;;;;;;6.00;4.87;;;22.00;98.60;;;;;;5079691;28;20486;-59
2023/08/17 01:51:20;;;;;;;5.20;4.70;;;22.00;98.70;;;;;;5079373;28;21013;-59
2023/08/17 01:53:47;;;;;;;6.17;5.60;;;21.90;98.60;;;;;;5079791;28;20872;-59
2023/08/17 01:56:15;;;;;;;5.50;4.27;;;22.00;98.70;;;;;;5079714;28;20502;-59
2023/08/17 01:58:42;;;;;;;6.03;5.37;;;22.00;98.70;;;;;;5079644;28;20452;-59
2023/08/17 02:01:09;;;;;;;5.27;4.60;;;22.00;98.70;;;;;;5079617;28;20501;-59
2023/08/17 02:03:35;;;;;;;5.10;4.50;;;21.90;98.70;;;;;;5079597;28;20868;-59
2023/08/17 02:06:03;;;;;;;8.13;5.07;;;21.90;98.70;;;;;;5079347;28;20816;-59
2023/08/17 02:08:30;;;;;;;5.83;5.10;;;21.90;98.70;;;;;;5079332;28;20883;-59
2023/08/17 02:10:57;;;;;;;5.00;4.60;;;21.90;98.70;;;;;;5079431;28;20865;-59
2023/08/17 02:13:27;;;;;;;8.47;5.30;;;21.90;98.80;;;;;;5079377;28;20942;-59
2023/08/17 02:15:53;;;;;;;5.77;5.23;;;21.90;98.70;;;;;;5080044;28;20803;-59
2023/08/17 02:18:20;;;;;;;7.80;4.97;;;21.90;98.80;;;;;;5079509;28;20441;-59
2023/08/17 02:20:47;;;;;;;6.07;5.20;;;21.90;98.80;;;;;;5079188;28;20491;-59
2023/08/17 02:23:13;;;;;;;5.70;5.20;;;21.90;98.80;;;;;;5079564;28;20424;-59
2023/08/17 02:25:41;;;;;;;6.60;6.10;;;21.90;98.80;;;;;;5079484;28;20449;-59
2023/08/17 02:28:07;;;;;;;6.00;5.43;;;21.80;98.80;;;;;;5078949;28;20819;-59
2023/08/17 02:30:35;;;;;;;8.07;4.83;;;21.80;98.90;;;;;;5079369;28;20475;-59
2023/08/17 02:33:02;;;;;;;5.97;5.17;;;21.80;98.90;;;;;;5079081;28;20445;-59
2023/08/17 02:35:29;;;;;;;6.27;5.77;;;21.80;98.90;;;;;;5079291;28;20448;-59
2023/08/17 02:37:55;;;;;;;6.87;5.97;;;21.80;99.00;;;;;;5079298;28;20830;-59
2023/08/17 02:40:22;;;;;;;7.00;6.40;;;21.80;99.30;;;;;;5077333;28;20486;-59
2023/08/17 02:42:49;;;;;;;5.23;4.73;;;21.80;99.00;;;;;;5076123;28;20443;-59
2023/08/17 02:45:16;;;;;;;7.40;6.83;;;21.80;99.00;;;;;;5076084;28;20459;-59
2023/08/17 02:47:44;;;;;;;7.10;6.50;;;21.80;99.00;;;;;;5076222;28;20440;-59
2023/08/17 02:50:11;;;;;;;6.33;5.83;;;21.80;99.10;;;;;;5075857;28;20491;-59
2023/08/17 02:52:38;;;;;;;7.70;5.93;;;21.80;99.10;;;;;;5075617;28;20934;-59
2023/08/17 02:55:05;;;;;;;6.83;6.07;;;21.80;99.20;;;;;;5075868;28;20453;-59
2023/08/17 02:57:32;;;;;;;7.50;6.40;;;21.70;99.20;;;;;;5075750;28;20459;-59
2023/08/17 02:59:59;;;;;;;7.23;5.33;;;21.70;99.20;;;;;;5075824;28;20452;-59
2023/08/17 03:02:25;;;;;;;6.53;5.87;;;21.60;99.10;;;;;;5075730;28;20631;-59
2023/08/17 03:04:53;;;;;;;8.07;7.20;;;21.70;99.10;;;;;;5075943;28;20437;-59
2023/08/17 03:07:20;;;;;;;6.70;6.20;;;21.60;99.10;;;;;;5075587;28;20444;-59
2023/08/17 03:09:46;;;;;;;8.63;6.63;;;21.60;99.10;;;;;;5075340;28;20491;-59
2023/08/17 03:12:13;;;;;;;6.10;5.60;;;21.50;99.00;;;;;;5075357;28;21013;-59
2023/08/17 03:14:40;;;;;;;6.03;5.40;;;21.50;99.10;;;;;;5075630;28;20444;-59
2023/08/17 03:17:06;;;;;;;6.90;6.30;;;21.50;99.20;;;;;;5075425;28;20448;-59
2023/08/17 03:19:33;;;;;;;5.60;5.03;;;21.50;99.10;;;;;;5075421;28;20446;-59
2023/08/17 03:22:01;;;;;;;7.73;5.90;;;21.50;99.10;;;;;;5074996;28;20978;-59
2023/08/17 03:24:28;;;;;;;9.50;5.67;;;21.50;99.00;;;;;;5075431;28;20468;-59
2023/08/17 03:26:54;;;;;;;7.30;6.60;;;21.50;99.00;;;;;;5075335;28;20460;-59
2023/08/17 03:29:21;;;;;;;6.13;5.00;;;21.50;98.90;;;;;;5075132;28;20491;-59
2023/08/17 03:31:49;;;;;;;6.73;6.00;;;21.40;98.90;;;;;;5074806;28;20997;-59
2023/08/17 03:34:16;;;;;;;5.40;4.90;;;21.40;99.00;;;;;;5075093;28;20498;-59
2023/08/17 03:36:42;;;;;;;6.87;5.80;;;21.40;99.00;;;;;;5075069;28;20449;-59
2023/08/17 03:39:11;;;;;;;7.47;5.30;;;21.40;99.00;;;;;;5075049;28;20447;-59
2023/08/17 03:41:38;;;;;;;6.63;5.53;;;21.40;98.90;;;;;;5074606;28;20495;-59
2023/08/17 03:44:05;;;;;;;7.47;6.20;;;21.30;98.90;;;;;;5074902;28;20498;-59
2023/08/17 03:46:32;;;;;;;10.13;6.00;;;21.30;98.90;;;;;;5074877;28;20448;-59
2023/08/17 03:48:59;;;;;;;5.67;5.17;;;21.30;99.00;;;;;;5074402;28;20829;-59
2023/08/17 03:51:26;;;;;;;6.73;5.70;;;21.30;98.90;;;;;;5074632;28;20830;-59
2023/08/17 03:53:53;;;;;;;7.43;6.73;;;21.30;98.90;;;;;;5073423;28;20935;-59
2023/08/17 03:56:21;;;;;;;7.17;6.20;;;21.30;99.00;;;;;;5074677;28;20942;-59
2023/08/17 03:58:47;;;;;;;9.17;6.10;;;21.30;99.10;;;;;;5074780;28;20444;-59
2023/08/17 04:01:14;;;;;;;8.53;6.07;;;21.20;99.10;;;;;;5074587;28;20464;-59
2023/08/17 04:03:41;;;;;;;8.23;5.50;;;21.20;99.10;;;;;;5074457;28;20479;-59
2023/08/17 04:06:10;;;;;;;9.00;7.17;;;21.20;99.10;;;;;;5074484;28;20445;-59
2023/08/17 04:08:36;;;;;;;9.23;7.40;;;21.20;99.10;;;;;;5074373;28;20494;-59
2023/08/17 04:11:03;;;;;;;8.50;6.93;;;21.20;99.10;;;;;;5073937;28;20472;-59
2023/08/17 04:13:31;;;;;;;8.77;7.97;;;21.20;99.10;;;;;;5074375;28;20441;-59
2023/08/17 04:15:58;;;;;;;8.23;6.53;;;21.20;99.20;;;;;;5074050;28;20818;-59
2023/08/17 04:18:25;;;;;;;9.90;7.30;;;21.20;99.20;;;;;;5074475;28;20448;-59
2023/08/17 04:20:51;;;;;;;8.90;7.87;;;21.20;99.20;;;;;;5073976;28;20472;-59
2023/08/17 04:23:18;;;;;;;10.17;9.17;;;21.20;99.40;;;;;;5074210;28;20784;-59
2023/08/17 04:25:45;;;;;;;9.17;8.47;;;21.10;99.40;;;;;;5074173;28;20463;-59
2023/08/17 04:28:11;;;;;;;11.17;10.07;;;21.20;99.50;;;;;;5074023;28;20447;-59
2023/08/17 04:30:40;;;;;;;11.67;10.50;;;21.20;99.50;;;;;;5074031;28;20907;-59
2023/08/17 04:33:07;;;;;;;10.33;9.23;;;21.10;99.50;;;;;;5073992;28;20445;-59
2023/08/17 04:35:34;;;;;;;13.83;10.60;;;21.10;99.50;;;;;;5074003;28;20464;-59
2023/08/17 04:38:01;;;;;;;10.60;9.60;;;21.10;99.60;;;;;;5073867;28;20449;-59
2023/08/17 04:40:27;;;;;;;12.57;9.70;;;21.10;99.60;;;;;;5073730;28;20452;-59
2023/08/17 04:42:54;;;;;;;14.13;12.20;;;21.10;99.50;;;;;;5073929;28;20444;-59
2023/08/17 04:45:21;;;;;;;12.10;10.40;;;21.10;99.60;;;;;;5073948;28;20440;-59
2023/08/17 04:47:49;;;;;;;11.17;10.07;;;21.10;99.40;;;;;;5073490;28;20441;-59
2023/08/17 04:50:16;;;;;;;10.53;9.50;;;21.10;99.30;;;;;;5073555;28;21039;-59
2023/08/17 04:52:44;;;;;;;11.90;10.73;;;21.10;99.30;;;;;;5073719;28;20476;-59
2023/08/17 04:55:10;;;;;;;11.70;10.23;;;21.10;99.30;;;;;;5073757;28;20453;-59
2023/08/17 04:57:37;;;;;;;12.97;11.00;;;21.10;99.40;;;;;;5073449;28;20444;-59
2023/08/17 05:00:08;;;;;;;11.90;10.70;;;21.10;99.50;;;;;;5073618;28;20445;-59
2023/08/17 05:02:35;;;;;;;11.80;10.57;;;21.00;99.50;;;;;;5074091;28;20508;-59
2023/08/17 05:05:05;;;;;;;13.00;9.67;;;21.00;99.50;;;;;;5074728;28;20449;-59
2023/08/17 05:07:32;;;;;;;10.73;9.83;;;21.00;99.50;;;;;;5074549;28;20453;-59
2023/08/17 05:09:59;;;;;;;9.83;8.93;;;21.10;99.60;;;;;;5073011;28;21036;-59
2023/08/17 05:12:26;;;;;;;10.30;9.30;;;21.00;99.60;;;;;;5073362;28;20464;-59
2023/08/17 05:14:52;;;;;;;9.97;9.00;;;21.10;99.60;;;;;;5074512;28;20447;-59
2023/08/17 05:17:19;;;;;;;10.20;9.20;;;21.10;99.60;;;;;;5073359;28;20440;-59
2023/08/17 05:19:46;;;;;;;11.23;9.90;;;21.10;99.60;;;;;;5073299;28;20452;-59
2023/08/17 05:22:14;;;;;;;10.60;9.50;;;21.10;99.60;;;;;;5072748;28;20993;-59
2023/08/17 05:24:40;;;;;;;11.60;10.50;;;21.10;99.60;;;;;;5073328;28;20864;-59
2023/08/17 05:27:07;;;;;;;11.10;9.80;;;21.10;99.70;;;;;;5073611;28;20441;-59
2023/08/17 05:29:34;;;;;;;11.33;9.07;;;21.10;99.60;;;;;;5073184;28;20480;-59
2023/08/17 05:32:01;;;;;;;9.43;8.43;;;21.10;99.60;;;;;;5072841;28;20982;-60
2023/08/17 05:34:27;;;;;;;11.33;10.13;;;21.20;99.60;;;;;;5073910;28;20444;-59
2023/08/17 05:36:54;;;;;;;10.87;9.87;;;21.10;99.60;;;;;;5073317;28;20440;-59
2023/08/17 05:39:22;;;;;;;10.40;9.50;;;21.20;99.60;;;;;;5072371;28;20437;-59
2023/08/17 05:41:49;;;;;;;11.03;9.37;;;21.20;99.60;;;;;;5055006;28;20480;-59
2023/08/17 05:44:17;;;;;;;10.20;9.20;;;21.20;99.60;;;;;;5052942;28;20446;-59
2023/08/17 05:46:44;;;;;;;10.07;9.07;;;21.20;99.60;;;;;;5052860;28;20449;-59
2023/08/17 05:49:10;;;;;;;10.53;9.07;;;21.20;99.60;;;;;;5052447;28;20797;-59
2023/08/17 05:51:37;;;;;;;10.83;9.80;;;21.20;99.60;;;;;;5052836;28;20544;-58
2023/08/17 05:54:05;;;;;;;11.03;9.90;;;21.20;99.60;;;;;;5052992;28;20446;-59
2023/08/17 05:56:33;;;;;;;12.10;9.20;;;21.30;99.60;;;;;;5052575;28;20963;-59
2023/08/17 05:59:00;;;;;;;9.40;7.87;;;21.30;99.40;;;;;;5052701;28;20456;-59
2023/08/17 06:01:26;;;;;;;11.83;9.23;;;21.30;99.30;;;;;;5052851;28;20832;-59
2023/08/17 06:03:53;;;;;;;14.00;9.63;;;21.30;99.40;;;;;;5052952;28;20472;-59
2023/08/17 06:06:20;;;;;;;11.47;9.30;;;21.40;99.40;;;;;;5052912;28;20472;-59
2023/08/17 06:08:47;;;;;;;9.70;8.70;;;21.40;99.40;;;;;;5052877;28;20441;-59
2023/08/17 06:11:13;;;;;;;11.20;8.70;;;21.40;99.30;;;;;;5052634;28;20485;-59
2023/08/17 06:13:41;;;;;;;11.10;9.47;;;21.40;99.30;;;;;;5052435;28;20847;-59
2023/08/17 06:16:08;;;;;;;9.60;8.60;;;21.50;99.30;;;;;;5054043;28;20881;-59
2023/08/17 06:18:35;;;;;;;14.40;10.27;;;21.60;99.20;;;;;;5056576;28;20441;-59
2023/08/17 06:21:01;;;;;;;10.40;9.47;;;21.60;99.20;;;;;;5056330;28;20473;-59
2023/08/17 06:23:28;;;;;;;10.97;10.00;;;21.70;99.20;;;;;;5056555;28;20442;-59
2023/08/17 06:25:58;;;;;;;11.77;10.50;;;21.70;99.10;;;;;;5056744;28;20452;-59
2023/08/17 06:28:25;;;;;;;11.80;10.60;;;21.80;98.90;;;;;;5056130;28;20959;-59
2023/08/17 06:30:54;;;;;;;13.07;11.17;;;21.80;98.70;;;;;;5056253;28;20499;-59
2023/08/17 06:33:21;;;;;;;11.30;10.20;;;21.90;98.60;;;;;;5055965;28;20954;-59
2023/08/17 06:35:49;;;;;;;14.20;12.10;;;21.90;98.50;;;;;;5056197;28;20445;-59
2023/08/17 06:38:15;;;;;;;15.40;13.80;;;22.00;98.50;;;;;;5067070;28;20452;-59
2023/08/17 06:40:42;;;;;;;14.40;13.10;;;22.00;98.40;;;;;;5075517;28;20905;-59
2023/08/17 06:43:09;;;;;;;13.07;11.97;;;22.00;98.30;;;;;;5075563;28;20448;-59
2023/08/17 06:45:36;;;;;;;15.30;11.57;;;22.00;98.10;;;;;;5075747;28;20448;-59
2023/08/17 06:48:04;;;;;;;12.13;10.83;;;22.10;98.10;;;;;;5075776;28;20468;-59
2023/08/17 06:50:31;;;;;;;14.93;11.33;;;22.10;97.90;;;;;;5075685;28;20487;-59
2023/08/17 06:52:58;;;;;;;15.77;14.37;;;22.20;97.90;;;;;;5075903;28;20475;-59
2023/08/17 06:55:25;;;;;;;14.87;13.40;;;22.20;97.70;;;;;;5075937;28;20528;-59
2023/08/17 06:57:51;;;;;;;13.63;12.23;;;22.20;97.60;;;;;;5075555;28;20498;-59
2023/08/17 07:00:20;;;;;;;13.97;12.67;;;22.30;97.50;;;;;;5076001;28;20441;-59
2023/08/17 07:02:47;;;;;;;14.73;13.43;;;22.30;97.40;;;;;;5075370;28;20543;-59
2023/08/17 07:05:15;;;;;;;14.40;13.10;;;22.30;97.20;;;;;;5075419;28;20931;-59
2023/08/17 07:07:42;;;;;;;15.50;14.20;;;22.30;97.10;;;;;;5075678;28;20452;-59
2023/08/17 07:10:09;;;;;;;15.40;13.93;;;22.40;97.30;;;;;;5075026;28;20480;-59
2023/08/17 07:12:37;;;;;;;13.90;12.57;;;22.30;97.10;;;;;;5075562;28;20481;-59
2023/08/17 07:15:04;;;;;;;13.57;12.40;;;22.30;96.90;;;;;;5075579;28;20444;-59
2023/08/17 07:17:31;;;;;;;14.97;13.37;;;22.30;96.90;;;;;;5075535;28;20514;-59
2023/08/17 07:19:58;;;;;;;14.20;12.80;;;22.20;96.80;;;;;;5075472;28;20799;-59
2023/08/17 07:22:26;;;;;;;14.33;13.00;;;22.30;97.10;;;;;;5074983;28;20472;-59
2023/08/17 07:24:53;;;;;;;15.17;13.63;;;22.20;97.10;;;;;;5075187;28;20796;-58
2023/08/17 07:27:19;;;;;;;14.90;13.40;;;22.30;97.20;;;;;;5075003;28;20463;-58
2023/08/17 07:29:46;;;;;;;14.60;13.20;;;22.30;97.10;;;;;;5075162;28;20440;-59
2023/08/17 07:32:13;;;;;;;15.27;13.73;;;22.30;97.20;;;;;;5075105;28;20472;-59
2023/08/17 07:34:39;;;;;;;15.80;14.30;;;22.30;97.50;;;;;;5075138;28;20502;-59
2023/08/17 07:37:06;;;;;;;15.20;13.07;;;22.40;97.10;;;;;;5075124;28;20452;-59
2023/08/17 07:39:34;;;;;;;16.13;14.63;;;22.40;97.10;;;;;;5075099;28;20444;-59
2023/08/17 07:42:01;;;;;;;15.83;14.30;;;22.40;96.90;;;;;;5074631;28;20461;-59
2023/08/17 07:44:28;;;;;;;15.63;13.93;;;22.40;96.80;;;;;;5074631;28;20938;-59
2023/08/17 07:46:55;;;;;;;15.97;13.60;;;22.50;96.90;;;;;;5075141;28;20453;-59
2023/08/17 07:49:23;;;;;;;16.83;15.13;;;22.50;96.90;;;;;;5074853;28;20456;-59
2023/08/17 07:51:49;;;;;;;15.73;14.13;;;22.50;96.90;;;;;;5074678;28;20510;-59
2023/08/17 07:54:16;;;;;;;15.30;13.77;;;22.50;96.70;;;;;;5074903;28;20453;-59
2023/08/17 07:56:44;;;;;;;15.33;13.70;;;22.50;96.70;;;;;;5074671;28;20448;-59
2023/08/17 07:59:11;;;;;;;16.40;14.70;;;22.50;96.60;;;;;;5074549;28;20467;-59
2023/08/17 08:01:39;;;;;;;16.03;14.53;;;22.60;96.60;;;;;;5074459;28;20461;-59
2023/08/17 08:04:06;;;;;;;14.77;13.40;;;22.70;96.60;;;;;;5074702;28;20456;-59
2023/08/17 08:06:33;;;;;;;15.80;14.50;;;22.70;96.40;;;;;;5074509;28;20449;-59
2023/08/17 08:09:00;;;;;;;16.97;15.37;;;22.80;96.00;;;;;;5074139;28;20440;-59
2023/08/17 08:11:29;;;;;;;15.90;13.73;;;22.80;95.90;;;;;;5074298;28;20487;-59
2023/08/17 08:13:57;;;;;;;19.83;15.20;;;22.80;95.90;;;;;;5074598;28;20970;-59
2023/08/17 08:16:24;;;;;;;16.00;14.40;;;22.90;95.90;;;;;;5074392;28;20440;-59
2023/08/17 08:18:51;;;;;;;15.40;13.97;;;22.90;95.90;;;;;;5074289;28;20441;-59
2023/08/17 08:21:17;;;;;;;14.53;13.20;;;22.90;95.80;;;;;;5073810;28;20483;-59
2023/08/17 08:23:44;;;;;;;16.60;15.00;;;22.90;95.80;;;;;;5074245;28;20436;-59
2023/08/17 08:26:11;;;;;;;17.53;15.10;;;22.90;95.90;;;;;;5074145;28;20444;-59
2023/08/17 08:28:37;;;;;;;13.07;11.73;;;22.90;96.00;;;;;;5074285;28;20452;-59
2023/08/17 08:31:05;;;;;;;15.30;13.90;;;23.00;96.00;;;;;;5074179;28;20487;-59
2023/08/17 08:33:32;;;;;;;11.90;10.90;;;23.00;96.00;;;;;;5073955;28;20449;-59
2023/08/17 08:35:59;;;;;;;15.53;14.13;;;23.00;95.90;;;;;;5073942;28;20472;-59
2023/08/17 08:38:26;;;;;;;14.23;12.80;;;23.00;95.90;;;;;;5073507;28;20444;-59
2023/08/17 08:40:52;;;;;;;15.00;13.50;;;23.10;95.90;;;;;;5073871;28;20460;-59
2023/08/17 08:43:19;;;;;;;16.83;13.73;;;23.10;95.80;;;;;;5073802;28;20447;-59
2023/08/17 08:45:47;;;;;;;15.33;13.43;;;23.10;95.80;;;;;;5073499;28;20494;-59
2023/08/17 08:48:16;;;;;;;17.90;14.13;;;23.20;95.80;;;;;;5073620;28;20476;-59
2023/08/17 08:50:43;;;;;;;16.60;14.87;;;23.20;95.70;;;;;;5073598;28;20507;-59
2023/08/17 08:53:14;;;;;;;16.57;13.40;;;23.30;95.50;;;;;;5073649;28;20441;-59
2023/08/17 08:55:47;;;;;;;17.10;14.77;;;23.30;95.30;;;;;;5073673;28;20432;-59
2023/08/17 08:58:14;;;;;;;18.53;16.57;;;23.40;95.20;;;;;;5073495;28;20448;-59
2023/08/17 09:00:42;;;;;;;16.43;14.83;;;23.40;95.20;;;;;;5073471;28;20468;-59
2023/08/17 09:03:09;;;;;;;13.90;12.47;;;23.40;95.00;;;;;;5073206;28;20934;-59
2023/08/17 09:05:39;;;;;;;15.37;13.63;;;23.50;95.00;;;;;;5073549;28;20449;-59
2023/08/17 09:08:09;;;;;;;17.33;13.10;;;23.50;94.90;;;;;;5073560;28;20444;-59
2023/08/17 09:10:36;;;;;;;15.03;13.67;;;23.60;95.00;;;;;;5073648;28;20493;-59
2023/08/17 09:13:03;;;;;;;16.43;14.83;;;23.70;94.90;;;;;;5073554;28;20448;-59
2023/08/17 09:15:29;;;;;;;16.10;14.60;;;23.80;94.70;;;;;;5073327;28;20533;-59
2023/08/17 09:17:57;;;;;;;16.27;14.70;;;23.80;94.40;;;;;;5073073;28;20970;-59
2023/08/17 09:20:39;;;;;;;15.93;12.77;;;23.90;94.20;;;;;;5073247;28;20451;-59
2023/08/17 09:23:11;;;;;;;15.07;13.77;;;23.90;94.00;;;;;;5073060;28;20821;-59
2023/08/17 09:25:40;;;;;;;18.23;14.30;;;24.00;93.90;;;;;;5073357;28;20502;-59
2023/08/17 09:28:09;;;;;;;14.30;13.10;;;24.00;93.90;;;;;;5073291;28;20440;-59
2023/08/17 09:30:53;;;;;;;15.90;14.50;;;24.10;93.90;;;;;;5072763;28;20519;-59
2023/08/17 09:33:21;;;;;;;17.07;15.43;;;24.10;93.70;;;;;;5073257;28;20429;-59
2023/08/17 09:35:50;;;;;;;15.37;13.83;;;24.10;93.60;;;;;;5073179;28;20440;-59
2023/08/17 09:38:16;;;;;;;20.30;14.90;;;24.10;93.50;;;;;;5070786;28;20448;-59
2023/08/17 09:40:43;;;;;;;17.43;14.87;;;24.10;93.50;;;;;;5052809;28;20840;-58
2023/08/17 09:43:10;;;;;;;15.77;14.37;;;24.20;93.80;;;;;;5052762;28;20944;-59
2023/08/17 09:45:38;;;;;;;14.07;12.77;;;24.10;93.40;;;;;;5052788;28;20959;-59
2023/08/17 09:48:05;;;;;;;14.43;12.70;;;24.20;93.40;;;;;;5053029;28;20438;-59
2023/08/17 09:50:32;;;;;;;13.33;12.20;;;24.30;93.20;;;;;;5054964;28;20465;-59
2023/08/17 09:53:00;;;;;;;14.73;12.93;;;24.30;93.20;;;;;;5057056;28;20488;-59
2023/08/17 09:55:27;;;;;;;12.90;11.70;;;24.30;92.90;;;;;;5056756;28;20445;-59
2023/08/17 09:57:54;;;;;;;14.70;12.43;;;24.30;92.60;;;;;;5057001;28;20444;-59
2023/08/17 10:00:21;;;;;;;14.80;13.50;;;24.30;92.70;;;;;;5056834;28;20446;-59
2023/08/17 10:02:50;;;;;;;12.30;11.30;;;24.30;92.70;;;;;;5056862;28;20441;-59
2023/08/17 10:05:19;;;;;;;18.33;15.00;;;24.30;92.80;;;;;;5057759;28;20447;-59
2023/08/17 10:07:48;;;;;;;16.73;15.03;;;24.30;92.80;;;;;;5056849;28;20442;-59
2023/08/17 10:10:22;;;;;;;15.53;13.80;;;24.20;92.80;;;;;;5056521;28;20563;-59
2023/08/17 10:12:58;;;;;;;21.60;15.40;;;24.20;92.80;;;;;;5056709;28;20469;-59
2023/08/17 10:15:29;;;;;;;16.30;14.77;;;24.10;92.70;;;;;;5056386;28;20429;-59
2023/08/17 10:18:03;;;;;;;14.77;13.37;;;24.10;93.00;;;;;;5056591;28;20428;-59
2023/08/17 10:20:32;;;;;;;16.27;12.93;;;24.10;93.10;;;;;;5056382;28;20473;-59
2023/08/17 10:23:07;;;;;;;15.40;13.90;;;24.10;93.20;;;;;;5055897;28;20853;-58
2023/08/17 10:25:38;;;;;;;16.33;14.60;;;24.10;93.30;;;;;;5056389;28;20417;-59
2023/08/17 10:28:06;;;;;;;15.43;13.83;;;24.10;93.30;;;;;;5056053;28;20422;-59
2023/08/17 10:30:33;;;;;;;13.90;12.50;;;24.10;93.30;;;;;;5056110;28;20870;-59
2023/08/17 10:33:01;;;;;;;14.93;13.47;;;24.20;93.40;;;;;;5056275;28;20506;-59
2023/08/17 10:35:28;;;;;;;18.17;14.80;;;24.20;93.20;;;;;;5056167;28;20503;-59
2023/08/17 10:37:55;;;;;;;13.03;11.80;;;24.30;93.30;;;;;;5056997;28;20445;-59
2023/08/17 10:40:27;;;;;;;15.57;13.47;;;24.40;93.10;;;;;;5056119;28;20449;-59
2023/08/17 10:42:56;;;;;;;23.07;15.63;;;24.50;93.10;;;;;;5056154;28;20452;-59
2023/08/17 10:45:28;;;;;;;16.10;12.93;;;24.50;93.00;;;;;;5055939;28;20450;-59
2023/08/17 10:48:16;;;;;;;26.20;15.27;;;24.60;93.00;;;;;;5056292;28;20441;-59
2023/08/17 10:51:01;;;;;;;14.93;13.33;;;24.70;92.90;;;;;;5043181;28;20469;-59
2023/08/17 10:53:28;;;;;;;14.93;13.40;;;24.80;92.50;;;;;;5055908;28;20808;-59
2023/08/17 10:55:59;;;;;;;15.93;14.33;;;24.90;92.20;;;;;;5056103;28;20444;-59
2023/08/17 10:58:32;;;;;;;13.10;11.83;;;24.90;92.00;;;;;;5055825;28;20520;-59
2023/08/17 11:00:59;;;;;;;12.60;11.30;;;25.00;91.80;;;;;;5055627;28;20494;-59
2023/08/17 11:03:27;;;;;;;12.00;10.93;;;25.10;91.60;;;;;;5055335;28;20441;-59
2023/08/17 11:05:55;;;;;;;13.90;12.50;;;25.20;91.50;;;;;;5055708;28;20477;-59
2023/08/17 11:08:24;;;;;;;12.60;11.30;;;25.40;91.20;;;;;;5055386;28;20868;-59
2023/08/17 11:10:59;;;;;;;13.53;12.20;;;25.50;90.80;;;;;;5055360;28;20465;-59
2023/08/17 11:13:29;;;;;;;12.07;11.03;;;25.60;90.40;;;;;;5055655;28;20422;-59
2023/08/17 11:15:56;;;;;;;12.23;11.03;;;25.70;90.10;;;;;;5055571;28;20465;-59
2023/08/17 11:18:23;;;;;;;15.10;12.87;;;25.60;90.00;;;;;;5055169;28;20442;-59
2023/08/17 11:20:51;;;;;;;15.10;13.60;;;25.60;90.20;;;;;;5055106;28;20485;-59
2023/08/17 11:23:19;;;;;;;15.00;13.20;;;25.50;90.20;;;;;;5055363;28;20446;-59
2023/08/17 11:25:46;;;;;;;15.30;13.77;;;25.40;90.40;;;;;;5055226;28;20445;-59
2023/08/17 11:28:14;;;;;;;14.47;13.07;;;25.40;90.50;;;;;;5055319;28;20441;-59
2023/08/17 11:30:43;;;;;;;16.90;12.17;;;25.30;90.60;;;;;;5054920;28;20843;-59
2023/08/17 11:33:10;;;;;;;13.40;12.10;;;25.30;90.70;;;;;;5055627;28;20485;-59
2023/08/17 11:35:37;;;;;;;14.50;13.00;;;25.30;90.80;;;;;;5056006;28;20449;-59
2023/08/17 11:38:05;;;;;;;15.63;13.07;;;25.20;90.90;;;;;;5055112;28;20445;-59
2023/08/17 11:40:33;;;;;;;14.57;13.27;;;25.20;90.80;;;;;;5055039;28;20505;-59
2023/08/17 11:43:00;;;;;;;13.50;12.20;;;25.30;90.70;;;;;;5055073;28;20433;-59
2023/08/17 11:45:26;;;;;;;15.77;14.27;;;25.30;90.60;;;;;;5055511;28;20457;-59
2023/08/17 11:47:54;;;;;;;13.63;12.43;;;25.30;90.50;;;;;;5054689;28;20940;-59
2023/08/17 11:50:21;;;;;;;15.13;13.73;;;25.40;90.30;;;;;;5054945;28;20450;-59
2023/08/17 11:52:48;;;;;;;12.03;10.93;;;25.50;90.30;;;;;;5054855;28;20481;-59
2023/08/17 11:55:18;;;;;;;14.20;12.80;;;25.60;90.00;;;;;;5054787;28;20447;-59
2023/08/17 11:57:45;;;;;;;14.90;13.03;;;25.70;90.10;;;;;;5054558;28;20465;-59
2023/08/17 12:00:19;;;;;;;12.13;11.03;;;25.80;89.70;;;;;;5054421;28;20938;-59
2023/08/17 12:02:48;;;;;;;12.40;11.20;;;26.00;88.50;;;;;;5054723;28;20462;-59
2023/08/17 12:05:20;;;;;;;13.93;12.53;;;26.10;88.20;;;;;;5054609;28;20468;-59
2023/08/17 12:07:47;;;;;;;18.20;16.40;;;26.20;88.50;;;;;;5054578;28;20430;-59
2023/08/17 12:10:14;;;;;;;15.50;13.70;;;26.20;87.30;;;;;;5054433;28;20448;-59
2023/08/17 12:12:40;;;;;;;15.13;13.63;;;26.20;87.40;;;;;;5054109;28;20485;-59
2023/08/17 12:15:10;;;;;;;16.83;14.77;;;26.20;86.90;;;;;;5053422;28;20943;-59
2023/08/17 12:17:41;;;;;;;18.00;16.30;;;26.20;86.70;;;;;;5054184;28;20437;-59
2023/08/17 12:20:09;;;;;;;18.67;16.83;;;26.10;86.30;;;;;;5053935;28;20931;-59
2023/08/17 12:22:40;;;;;;;16.93;15.17;;;26.10;85.80;;;;;;5053924;28;20464;-59
2023/08/17 12:25:10;;;;;;;18.63;16.73;;;26.20;86.30;;;;;;5054404;28;20426;-59
2023/08/17 12:27:37;;;;;;;22.60;17.33;;;26.20;87.30;;;;;;5054134;28;20446;-59
2023/08/17 12:30:04;;;;;;;17.67;16.00;;;26.20;86.90;;;;;;5053967;28;20528;-59
2023/08/17 12:32:31;;;;;;;16.50;14.77;;;26.20;86.30;;;;;;5053948;28;20485;-59
2023/08/17 12:34:57;;;;;;;15.33;13.97;;;26.20;86.30;;;;;;5053608;28;20456;-59
2023/08/17 12:37:24;;;;;;;16.93;15.27;;;26.30;86.60;;;;;;5054045;28;20808;-59
2023/08/17 12:39:52;;;;;;;17.70;15.93;;;26.30;86.30;;;;;;5053958;28;20448;-59